Terminal Aerodrome Forecast
Issued by NWS Louisville, KY

Home | Current Version | Previous Version | Text Only | Print | Product List | Glossary On
Versions: 1 2 3 4 5 6 7 8 9 10 11 12 13 14 15 16 17 18 19 20 21 22
000
FTUS43 KLMK 271600 AAA
TAFLEX
TAF AMD
KLEX 271615Z 2716/2812 21010KT P6SM SCT025 SCT250
     FM271900 21013G18KT P6SM VCTS SCT030CB BKN050
      TEMPO 2719/2721 VRB20G30KT 2SM TSRA BKN025CB
     FM280200 21005KT P6SM VCSH BKN100
     FM280900 00000KT 4SM BR FEW250=

USA.gov is the U.S. government's official web portal to all federal, state and local government web resources and services.